sensor_id;sensor_type;location;lat;lon;timestamp;pressure;altitude;pressure_sealevel;temperature;humidity
72157;BME280;60035;52.122;5.406;2023-06-04T00:01:05;102420.41;;;13.81;59.03
72157;BME280;60035;52.122;5.406;2023-06-04T00:03:42;102419.63;;;13.76;59.42
72157;BME280;60035;52.122;5.406;2023-06-04T00:06:09;102418.03;;;13.71;59.50
72157;BME280;60035;52.122;5.406;2023-06-04T00:08:36;102419.78;;;13.67;59.71
72157;BME280;60035;52.122;5.406;2023-06-04T00:11:02;102417.34;;;13.59;59.84
72157;BME280;60035;52.122;5.406;2023-06-04T00:13:29;102419.94;;;13.58;60.01
72157;BME280;60035;52.122;5.406;2023-06-04T00:15:56;102426.00;;;13.55;59.89
72157;BME280;60035;52.122;5.406;2023-06-04T00:18:22;102416.59;;;13.53;59.74
72157;BME280;60035;52.122;5.406;2023-06-04T00:20:49;102414.97;;;13.45;60.13
72157;BME280;60035;52.122;5.406;2023-06-04T00:23:15;102410.78;;;13.40;60.26
72157;BME280;60035;52.122;5.406;2023-06-04T00:25:42;102410.81;;;13.38;60.68
72157;BME280;60035;52.122;5.406;2023-06-04T00:28:08;102418.56;;;13.35;60.49
72157;BME280;60035;52.122;5.406;2023-06-04T00:30:35;102415.19;;;13.31;60.69
72157;BME280;60035;52.122;5.406;2023-06-04T00:33:02;102414.44;;;13.25;61.16
72157;BME280;60035;52.122;5.406;2023-06-04T00:35:28;102413.56;;;13.26;61.14
72157;BME280;60035;52.122;5.406;2023-06-04T00:37:55;102414.41;;;13.26;60.81
72157;BME280;60035;52.122;5.406;2023-06-04T00:40:22;102414.47;;;13.23;61.00
72157;BME280;60035;52.122;5.406;2023-06-04T00:42:48;102411.94;;;13.19;61.11
72157;BME280;60035;52.122;5.406;2023-06-04T00:45:16;102409.41;;;13.17;61.31
72157;BME280;60035;52.122;5.406;2023-06-04T00:47:44;102415.38;;;13.17;61.22
72157;BME280;60035;52.122;5.406;2023-06-04T00:50:11;102413.75;;;13.12;61.50
72157;BME280;60035;52.122;5.406;2023-06-04T00:52:39;102419.00;;;13.07;61.59
72157;BME280;60035;52.122;5.406;2023-06-04T00:55:06;102414.75;;;13.02;61.90
72157;BME280;60035;52.122;5.406;2023-06-04T00:57:34;102421.66;;;12.99;61.81
72157;BME280;60035;52.122;5.406;2023-06-04T01:00:01;102420.84;;;12.96;61.78
72157;BME280;60035;52.122;5.406;2023-06-04T01:02:28;102424.28;;;12.95;61.67
72157;BME280;60035;52.122;5.406;2023-06-04T01:05:03;102419.22;;;12.90;62.25
72157;BME280;60035;52.122;5.406;2023-06-04T01:07:31;102417.53;;;12.88;61.90
72157;BME280;60035;52.122;5.406;2023-06-04T01:09:58;102418.41;;;12.87;62.24
72157;BME280;60035;52.122;5.406;2023-06-04T01:12:24;102414.16;;;12.84;62.53
72157;BME280;60035;52.122;5.406;2023-06-04T01:14:51;102416.00;;;12.76;62.86
72157;BME280;60035;52.122;5.406;2023-06-04T01:20:54;102416.97;;;12.65;63.29
72157;BME280;60035;52.122;5.406;2023-06-04T01:25:36;102412.75;;;12.61;63.27
72157;BME280;60035;52.122;5.406;2023-06-04T01:28:09;102423.03;;;12.60;63.60
72157;BME280;60035;52.122;5.406;2023-06-04T01:30:41;102417.91;;;12.60;63.31
72157;BME280;60035;52.122;5.406;2023-06-04T01:33:13;102421.38;;;12.56;63.23
72157;BME280;60035;52.122;5.406;2023-06-04T01:35:40;102419.69;;;12.55;63.34
72157;BME280;60035;52.122;5.406;2023-06-04T01:38:06;102419.75;;;12.48;63.85
72157;BME280;60035;52.122;5.406;2023-06-04T01:40:34;102424.97;;;12.41;64.10
72157;BME280;60035;52.122;5.406;2023-06-04T01:43:01;102423.38;;;12.32;64.46
72157;BME280;60035;52.122;5.406;2023-06-04T01:45:28;102417.41;;;12.30;64.02
72157;BME280;60035;52.122;5.406;2023-06-04T01:47:55;102425.97;;;12.27;64.17
72157;BME280;60035;52.122;5.406;2023-06-04T01:50:22;102420.09;;;12.19;64.08
72157;BME280;60035;52.122;5.406;2023-06-04T01:52:49;102419.25;;;12.19;64.42
72157;BME280;60035;52.122;5.406;2023-06-04T01:55:16;102415.91;;;12.12;64.36
72157;BME280;60035;52.122;5.406;2023-06-04T01:57:44;102417.66;;;12.07;64.70
72157;BME280;60035;52.122;5.406;2023-06-04T02:00:11;102418.53;;;12.04;64.59
72157;BME280;60035;52.122;5.406;2023-06-04T02:02:39;102420.25;;;12.02;64.78
72157;BME280;60035;52.122;5.406;2023-06-04T02:05:08;102419.44;;;11.97;65.03
72157;BME280;60035;52.122;5.406;2023-06-04T02:07:36;102427.19;;;11.92;65.37
72157;BME280;60035;52.122;5.406;2023-06-04T02:10:12;102417.81;;;11.87;65.65
72157;BME280;60035;52.122;5.406;2023-06-04T02:12:40;102415.28;;;11.82;65.72
72157;BME280;60035;52.122;5.406;2023-06-04T02:15:10;102410.16;;;11.82;65.56
72157;BME280;60035;52.122;5.406;2023-06-04T02:17:36;102416.16;;;11.79;65.65
72157;BME280;60035;52.122;5.406;2023-06-04T02:20:09;102416.16;;;11.79;65.87
72157;BME280;60035;52.122;5.406;2023-06-04T02:22:36;102411.94;;;11.75;65.53
72157;BME280;60035;52.122;5.406;2023-06-04T02:25:04;102415.34;;;11.76;65.72
72157;BME280;60035;52.122;5.406;2023-06-04T02:27:31;102420.47;;;11.76;65.52
72157;BME280;60035;52.122;5.406;2023-06-04T02:29:57;102421.34;;;11.73;65.73
72157;BME280;60035;52.122;5.406;2023-06-04T02:32:24;102421.38;;;11.72;65.71
72157;BME280;60035;52.122;5.406;2023-06-04T02:34:51;102420.53;;;11.68;65.76
72157;BME280;60035;52.122;5.406;2023-06-04T02:37:17;102412.06;;;11.63;66.04
72157;BME280;60035;52.122;5.406;2023-06-04T02:39:44;102416.34;;;11.61;65.86
72157;BME280;60035;52.122;5.406;2023-06-04T02:42:10;102420.63;;;11.59;65.98
72157;BME280;60035;52.122;5.406;2023-06-04T02:44:37;102418.97;;;11.53;66.06
72157;BME280;60035;52.122;5.406;2023-06-04T02:47:04;102420.72;;;11.48;66.08
72157;BME280;60035;52.122;5.406;2023-06-04T02:49:30;102418.22;;;11.42;66.23
72157;BME280;60035;52.122;5.406;2023-06-04T02:51:57;102417.38;;;11.38;66.36
72157;BME280;60035;52.122;5.406;2023-06-04T02:54:23;102415.66;;;11.37;66.78
72157;BME280;60035;52.122;5.406;2023-06-04T02:56:50;102408.81;;;11.36;66.36
72157;BME280;60035;52.122;5.406;2023-06-04T02:59:17;102414.84;;;11.35;66.72
72157;BME280;60035;52.122;5.406;2023-06-04T03:01:44;102415.69;;;11.34;66.53
72157;BME280;60035;52.122;5.406;2023-06-04T03:04:11;102421.72;;;11.30;67.09
72157;BME280;60035;52.122;5.406;2023-06-04T03:06:41;102420.03;;;11.27;66.90
72157;BME280;60035;52.122;5.406;2023-06-04T03:09:12;102415.72;;;11.29;66.81
72157;BME280;60035;52.122;5.406;2023-06-04T03:11:39;102414.03;;;11.27;66.98
72157;BME280;60035;52.122;5.406;2023-06-04T03:14:06;102410.63;;;11.25;66.95
72157;BME280;60035;52.122;5.406;2023-06-04T03:16:32;102413.22;;;11.19;67.22
72157;BME280;60035;52.122;5.406;2023-06-04T03:18:59;102419.22;;;11.16;67.07
72157;BME280;60035;52.122;5.406;2023-06-04T03:21:26;102417.50;;;11.16;67.13
72157;BME280;60035;52.122;5.406;2023-06-04T03:23:55;102423.53;;;11.14;67.58
72157;BME280;60035;52.122;5.406;2023-06-04T03:26:22;102421.81;;;11.10;67.59
72157;BME280;60035;52.122;5.406;2023-06-04T03:28:48;102414.16;;;11.08;67.67
72157;BME280;60035;52.122;5.406;2023-06-04T03:31:15;102419.28;;;11.08;67.79
72157;BME280;60035;52.122;5.406;2023-06-04T03:33:41;102426.09;;;11.09;67.94
72157;BME280;60035;52.122;5.406;2023-06-04T03:36:08;102424.41;;;11.07;68.09
72157;BME280;60035;52.122;5.406;2023-06-04T03:38:37;102424.44;;;11.05;68.13
72157;BME280;60035;52.122;5.406;2023-06-04T03:41:03;102424.41;;;11.07;68.19
72157;BME280;60035;52.122;5.406;2023-06-04T03:43:30;102424.44;;;11.05;68.36
72157;BME280;60035;52.122;5.406;2023-06-04T03:45:56;102417.59;;;11.03;68.57
72157;BME280;60035;52.122;5.406;2023-06-04T03:48:23;102423.59;;;11.02;68.54
72157;BME280;60035;52.122;5.406;2023-06-04T03:50:49;102425.28;;;11.03;68.83
72157;BME280;60035;52.122;5.406;2023-06-04T03:53:17;102421.00;;;11.03;68.66
72157;BME280;60035;52.122;5.406;2023-06-04T03:55:43;102421.88;;;11.02;68.74
72157;BME280;60035;52.122;5.406;2023-06-04T03:58:10;102424.44;;;11.00;69.11
72157;BME280;60035;52.122;5.406;2023-06-04T04:00:37;102425.31;;;10.98;69.34
72157;BME280;60035;52.122;5.406;2023-06-04T04:03:04;102421.06;;;10.97;69.56
72157;BME280;60035;52.122;5.406;2023-06-04T04:05:31;102425.31;;;10.99;69.62
72157;BME280;60035;52.122;5.406;2023-06-04T04:07:57;102419.31;;;11.00;69.77
72157;BME280;60035;52.122;5.406;2023-06-04T04:10:24;102415.91;;;11.02;70.29
72157;BME280;60035;52.122;5.406;2023-06-04T04:12:50;102426.16;;;11.05;70.41
72157;BME280;60035;52.122;5.406;2023-06-04T04:15:17;102421.84;;;11.07;70.30
72157;BME280;60035;52.122;5.406;2023-06-04T04:17:44;102422.72;;;11.09;70.44
72157;BME280;60035;52.122;5.406;2023-06-04T04:20:11;102421.81;;;11.13;70.48
72157;BME280;60035;52.122;5.406;2023-06-04T04:22:41;102430.31;;;11.16;70.64
72157;BME280;60035;52.122;5.406;2023-06-04T04:25:08;102427.78;;;11.18;71.18
72157;BME280;60035;52.122;5.406;2023-06-04T04:27:35;102429.47;;;11.21;70.85
72157;BME280;60035;52.122;5.406;2023-06-04T04:30:06;102431.13;;;11.26;71.01
72157;BME280;60035;52.122;5.406;2023-06-04T04:32:32;102428.53;;;11.29;71.00
72157;BME280;60035;52.122;5.406;2023-06-04T04:34:59;102426.78;;;11.36;71.13
72157;BME280;60035;52.122;5.406;2023-06-04T04:37:26;102422.47;;;11.40;71.46
72157;BME280;60035;52.122;5.406;2023-06-04T04:39:53;102424.19;;;11.42;70.98
72157;BME280;60035;52.122;5.406;2023-06-04T04:42:19;102427.56;;;11.46;71.16
72157;BME280;60035;52.122;5.406;2023-06-04T04:44:46;102423.25;;;11.53;71.28
72157;BME280;60035;52.122;5.406;2023-06-04T04:47:17;102418.94;;;11.58;71.32
72157;BME280;60035;52.122;5.406;2023-06-04T04:49:44;102424.00;;;11.62;71.34
72157;BME280;60035;52.122;5.406;2023-06-04T04:52:14;102430.81;;;11.66;71.37
72157;BME280;60035;52.122;5.406;2023-06-04T04:54:40;102429.06;;;11.72;71.49
72157;BME280;60035;52.122;5.406;2023-06-04T04:57:07;102417.06;;;11.75;71.24
72157;BME280;60035;52.122;5.406;2023-06-04T04:59:40;102424.72;;;11.80;71.49
72157;BME280;60035;52.122;5.406;2023-06-04T05:02:06;102422.13;;;11.84;71.33
72157;BME280;60035;52.122;5.406;2023-06-04T05:04:33;102421.19;;;11.92;71.56
72157;BME280;60035;52.122;5.406;2023-06-04T05:07:00;102423.75;;;11.95;71.67
72157;BME280;60035;52.122;5.406;2023-06-04T05:09:26;102432.28;;;12.00;71.84
72157;BME280;60035;52.122;5.406;2023-06-04T05:11:53;102437.31;;;12.08;71.67
72157;BME280;60035;52.122;5.406;2023-06-04T05:14:19;102439.00;;;12.13;71.59
72157;BME280;60035;52.122;5.406;2023-06-04T05:16:46;102433.75;;;12.23;71.73
72157;BME280;60035;52.122;5.406;2023-06-04T05:19:18;102437.94;;;12.33;71.88
72157;BME280;60035;52.122;5.406;2023-06-04T05:21:45;102431.00;;;12.40;71.64
72157;BME280;60035;52.122;5.406;2023-06-04T05:24:12;102431.81;;;12.45;71.33
72157;BME280;60035;52.122;5.406;2023-06-04T05:26:38;102429.97;;;12.55;71.49
72157;BME280;60035;52.122;5.406;2023-06-04T05:29:06;102428.13;;;12.63;71.43
72157;BME280;60035;52.122;5.406;2023-06-04T05:31:33;102420.34;;;12.71;71.32
72157;BME280;60035;52.122;5.406;2023-06-04T05:34:01;102423.63;;;12.80;70.98
72157;BME280;60035;52.122;5.406;2023-06-04T05:36:29;102422.72;;;12.86;71.09
72157;BME280;60035;52.122;5.406;2023-06-04T05:38:56;102424.34;;;12.92;70.86
72157;BME280;60035;52.122;5.406;2023-06-04T05:41:26;102425.09;;;12.98;70.20
72157;BME280;60035;52.122;5.406;2023-06-04T05:43:54;102424.97;;;13.08;70.15
72157;BME280;60035;52.122;5.406;2023-06-04T05:46:21;102423.09;;;13.19;70.14
72157;BME280;60035;52.122;5.406;2023-06-04T05:48:48;102431.59;;;13.24;69.86
72157;BME280;60035;52.122;5.406;2023-06-04T05:51:15;102428.06;;;13.30;69.95
72157;BME280;60035;52.122;5.406;2023-06-04T05:53:41;102425.38;;;13.41;69.86
72157;BME280;60035;52.122;5.406;2023-06-04T05:56:08;102432.09;;;13.49;69.35
72157;BME280;60035;52.122;5.406;2023-06-04T05:58:34;102430.28;;;13.55;69.14
72157;BME280;60035;52.122;5.406;2023-06-04T06:01:01;102430.19;;;13.61;68.98
72157;BME280;60035;52.122;5.406;2023-06-04T06:03:28;102431.75;;;13.70;68.45
72157;BME280;60035;52.122;5.406;2023-06-04T06:05:54;102435.97;;;13.74;68.44
72157;BME280;60035;52.122;5.406;2023-06-04T06:08:23;102434.97;;;13.82;68.27
72157;BME280;60035;52.122;5.406;2023-06-04T06:10:49;102433.91;;;13.93;67.92
72157;BME280;60035;52.122;5.406;2023-06-04T06:13:16;102439.75;;;14.04;67.44
72157;BME280;60035;52.122;5.406;2023-06-04T06:15:43;102437.03;;;14.12;67.20
72157;BME280;60035;52.122;5.406;2023-06-04T06:18:09;102434.16;;;14.26;67.02
72157;BME280;60035;52.122;5.406;2023-06-04T06:20:36;102438.44;;;14.27;65.89
72157;BME280;60035;52.122;5.406;2023-06-04T06:23:06;102429.75;;;14.32;65.80
72157;BME280;60035;52.122;5.406;2023-06-04T06:25:33;102433.03;;;14.39;65.53
72157;BME280;60035;52.122;5.406;2023-06-04T06:27:59;102441.53;;;14.44;64.82
72157;BME280;60035;52.122;5.406;2023-06-04T06:30:26;102441.31;;;14.55;64.67
72157;BME280;60035;52.122;5.406;2023-06-04T06:32:53;102438.66;;;14.60;64.08
72157;BME280;60035;52.122;5.406;2023-06-04T06:35:22;102436.00;;;14.63;63.63
72157;BME280;60035;52.122;5.406;2023-06-04T06:37:48;102428.97;;;14.73;63.68
72157;BME280;60035;52.122;5.406;2023-06-04T06:40:15;102430.44;;;14.85;63.29
72157;BME280;60035;52.122;5.406;2023-06-04T06:42:41;102438.84;;;14.93;63.08
72157;BME280;60035;52.122;5.406;2023-06-04T06:45:08;102433.56;;;14.99;62.02
72157;BME280;60035;52.122;5.406;2023-06-04T06:47:35;102432.53;;;15.06;61.97
72157;BME280;60035;52.122;5.406;2023-06-04T06:50:02;102440.88;;;15.16;62.04
72157;BME280;60035;52.122;5.406;2023-06-04T06:52:28;102439.81;;;15.26;61.85
72157;BME280;60035;52.122;5.406;2023-06-04T06:54:58;102438.59;;;15.41;61.64
72157;BME280;60035;52.122;5.406;2023-06-04T06:57:24;102436.63;;;15.51;61.30
72157;BME280;60035;52.122;5.406;2023-06-04T06:59:52;102436.44;;;15.59;60.51
72157;BME280;60035;52.122;5.406;2023-06-04T07:02:20;102440.50;;;15.69;60.40
72157;BME280;60035;52.122;5.406;2023-06-04T07:04:47;102436.88;;;15.76;60.07
72157;BME280;60035;52.122;5.406;2023-06-04T07:07:14;102451.38;;;15.82;59.36
72157;BME280;60035;52.122;5.406;2023-06-04T07:09:44;102449.63;;;15.84;59.91
72157;BME280;60035;52.122;5.406;2023-06-04T07:12:10;102444.22;;;15.93;59.46
72157;BME280;60035;52.122;5.406;2023-06-04T07:14:37;102443.16;;;16.01;59.19
72157;BME280;60035;52.122;5.406;2023-06-04T07:17:03;102452.44;;;16.08;58.56
72157;BME280;60035;52.122;5.406;2023-06-04T07:19:30;102455.72;;;16.14;58.64
72157;BME280;60035;52.122;5.406;2023-06-04T07:21:57;102452.72;;;16.28;58.16
72157;BME280;60035;52.122;5.406;2023-06-04T07:24:23;102448.22;;;16.37;57.66
72157;BME280;60035;52.122;5.406;2023-06-04T07:26:50;102459.19;;;16.45;57.41
72157;BME280;60035;52.122;5.406;2023-06-04T07:29:17;102463.13;;;16.58;57.41
72157;BME280;60035;52.122;5.406;2023-06-04T07:31:44;102456.78;;;16.69;56.44
72157;BME280;60035;52.122;5.406;2023-06-04T07:34:11;102450.69;;;16.71;56.55
72157;BME280;60035;52.122;5.406;2023-06-04T07:36:37;102450.47;;;16.77;56.06
72157;BME280;60035;52.122;5.406;2023-06-04T07:39:04;102458.78;;;16.89;56.13
72157;BME280;60035;52.122;5.406;2023-06-04T07:41:33;102451.69;;;16.95;55.35
72157;BME280;60035;52.122;5.406;2023-06-04T07:44:00;102452.22;;;17.07;54.72
72157;BME280;60035;52.122;5.406;2023-06-04T07:46:27;102452.59;;;17.23;54.84
72157;BME280;60035;52.122;5.406;2023-06-04T07:48:54;102451.06;;;17.44;54.60
72157;BME280;60035;52.122;5.406;2023-06-04T07:51:20;102449.09;;;17.51;53.28
72157;BME280;60035;52.122;5.406;2023-06-04T07:53:47;102450.50;;;17.61;53.05
72157;BME280;60035;52.122;5.406;2023-06-04T07:56:13;102448.38;;;17.72;52.65
72157;BME280;60035;52.122;5.406;2023-06-04T07:58:41;102451.72;;;17.76;51.96
72157;BME280;60035;52.122;5.406;2023-06-04T08:01:08;102450.53;;;17.85;51.12
72157;BME280;60035;52.122;5.406;2023-06-04T08:03:35;102448.63;;;17.91;51.66
72157;BME280;60035;52.122;5.406;2023-06-04T08:06:03;102444.03;;;18.00;51.07
72157;BME280;60035;52.122;5.406;2023-06-04T08:08:30;102448.78;;;18.12;50.82
72157;BME280;60035;52.122;5.406;2023-06-04T08:11:01;102454.44;;;18.23;50.97
72157;BME280;60035;52.122;5.406;2023-06-04T08:13:28;102441.97;;;18.33;50.93
72157;BME280;60035;52.122;5.406;2023-06-04T08:15:55;102438.88;;;18.47;49.94
72157;BME280;60035;52.122;5.406;2023-06-04T08:18:22;102447.16;;;18.57;49.62
72157;BME280;60035;52.122;5.406;2023-06-04T08:20:48;102444.19;;;18.66;49.66
72157;BME280;60035;52.122;5.406;2023-06-04T08:23:15;102454.09;;;18.78;49.34
72157;BME280;60035;52.122;5.406;2023-06-04T08:25:44;102445.91;;;18.91;49.54
72157;BME280;60035;52.122;5.406;2023-06-04T08:28:13;102444.72;;;18.98;49.44
72157;BME280;60035;52.122;5.406;2023-06-04T08:30:40;102451.03;;;19.14;49.29
72157;BME280;60035;52.122;5.406;2023-06-04T08:33:07;102447.31;;;19.20;49.18
72157;BME280;60035;52.122;5.406;2023-06-04T08:35:39;102452.31;;;19.25;48.06
72157;BME280;60035;52.122;5.406;2023-06-04T08:38:06;102454.75;;;19.29;48.13
72157;BME280;60035;52.122;5.406;2023-06-04T08:40:32;102453.47;;;19.40;47.58
72157;BME280;60035;52.122;5.406;2023-06-04T08:43:01;102447.69;;;19.54;47.50
72157;BME280;60035;52.122;5.406;2023-06-04T08:45:32;102449.13;;;19.61;47.29
72157;BME280;60035;52.122;5.406;2023-06-04T08:48:00;102447.84;;;19.71;46.92
72157;BME280;60035;52.122;5.406;2023-06-04T08:50:26;102444.84;;;19.80;46.31
72157;BME280;60035;52.122;5.406;2023-06-04T08:52:55;102448.88;;;19.88;46.26
72157;BME280;60035;52.122;5.406;2023-06-04T08:55:22;102443.94;;;20.02;46.40
72157;BME280;60035;52.122;5.406;2023-06-04T08:57:49;102454.97;;;20.07;45.80
72157;BME280;60035;52.122;5.406;2023-06-04T09:00:18;102453.44;;;20.22;45.62
72157;BME280;60035;52.122;5.406;2023-06-04T09:02:45;102457.75;;;20.42;45.01
72157;BME280;60035;52.122;5.406;2023-06-04T09:05:21;102457.13;;;20.56;44.32
72157;BME280;60035;52.122;5.406;2023-06-04T09:07:52;102454.09;;;20.66;43.75
72157;BME280;60035;52.122;5.406;2023-06-04T09:10:22;102454.84;;;20.68;43.64
72157;BME280;60035;52.122;5.406;2023-06-04T09:12:51;102447.50;;;20.77;44.16
72157;BME280;60035;52.122;5.406;2023-06-04T09:15:18;102453.19;;;20.86;43.26
72157;BME280;60035;52.122;5.406;2023-06-04T09:17:45;102446.31;;;21.02;43.44
72157;BME280;60035;52.122;5.406;2023-06-04T09:20:22;102448.97;;;21.20;43.04
72157;BME280;60035;52.122;5.406;2023-06-04T09:22:49;102447.81;;;21.25;42.58
72157;BME280;60035;52.122;5.406;2023-06-04T09:25:23;102445.06;;;21.28;42.20
72157;BME280;60035;52.122;5.406;2023-06-04T09:27:54;102449.97;;;21.35;41.86
72157;BME280;60035;52.122;5.406;2023-06-04T09:30:23;102445.63;;;21.53;42.38
72157;BME280;60035;52.122;5.406;2023-06-04T09:32:49;102446.97;;;21.77;41.42
72157;BME280;60035;52.122;5.406;2023-06-04T09:35:18;102447.75;;;21.79;41.28
72157;BME280;60035;52.122;5.406;2023-06-04T09:37:55;102447.28;;;21.89;41.56
72157;BME280;60035;52.122;5.406;2023-06-04T09:40:23;102444.38;;;21.95;41.45
72157;BME280;60035;52.122;5.406;2023-06-04T09:42:50;102450.53;;;22.10;41.29
72157;BME280;60035;52.122;5.406;2023-06-04T09:45:28;102449.63;;;22.27;41.43
72157;BME280;60035;52.122;5.406;2023-06-04T09:47:56;102442.50;;;22.30;40.80
72157;BME280;60035;52.122;5.406;2023-06-04T09:52:53;102448.59;;;22.47;41.21
72157;BME280;60035;52.122;5.406;2023-06-04T09:55:19;102446.22;;;22.42;39.33
72157;BME280;60035;52.122;5.406;2023-06-04T09:57:49;102448.31;;;22.52;39.27
72157;BME280;60035;52.122;5.406;2023-06-04T10:00:18;102445.06;;;22.64;38.75
72157;BME280;60035;52.122;5.406;2023-06-04T10:02:45;102447.38;;;22.69;38.65
72157;BME280;60035;52.122;5.406;2023-06-04T10:05:16;102442.75;;;22.74;39.60
72157;BME280;60035;52.122;5.406;2023-06-04T10:07:46;102455.41;;;22.82;38.88
72157;BME280;60035;52.122;5.406;2023-06-04T10:10:17;102461.88;;;22.90;38.50
72157;BME280;60035;52.122;5.406;2023-06-04T10:12:48;102452.94;;;22.94;38.05
72157;BME280;60035;52.122;5.406;2023-06-04T10:15:17;102438.78;;;22.99;37.42
72157;BME280;60035;52.122;5.406;2023-06-04T10:17:44;102448.63;;;22.93;37.35
72157;BME280;60035;52.122;5.406;2023-06-04T10:20:11;102438.50;;;23.03;37.39
72157;BME280;60035;52.122;5.406;2023-06-04T10:22:38;102451.06;;;23.28;37.16
72157;BME280;60035;52.122;5.406;2023-06-04T10:25:05;102452.16;;;23.39;37.27
72157;BME280;60035;52.122;5.406;2023-06-04T10:27:33;102442.13;;;23.47;37.47
72157;BME280;60035;52.122;5.406;2023-06-04T10:30:03;102440.75;;;23.70;36.38
72157;BME280;60035;52.122;5.406;2023-06-04T10:32:30;102435.88;;;23.78;35.66
72157;BME280;60035;52.122;5.406;2023-06-04T10:34:57;102438.22;;;23.69;35.76
72157;BME280;60035;52.122;5.406;2023-06-04T10:37:25;102434.97;;;23.79;35.73
72157;BME280;60035;52.122;5.406;2023-06-04T10:39:54;102437.88;;;24.04;35.76
72157;BME280;60035;52.122;5.406;2023-06-04T10:42:22;102439.91;;;24.27;35.32
72157;BME280;60035;52.122;5.406;2023-06-04T10:44:50;102437.22;;;24.29;35.45
72157;BME280;60035;52.122;5.406;2023-06-04T10:47:27;102438.72;;;24.19;35.45
72157;BME280;60035;52.122;5.406;2023-06-04T10:50:08;102433.41;;;24.20;34.79
72157;BME280;60035;52.122;5.406;2023-06-04T10:52:36;102425.50;;;24.35;34.53
72157;BME280;60035;52.122;5.406;2023-06-04T10:55:04;102426.44;;;24.34;34.50
72157;BME280;60035;52.122;5.406;2023-06-04T10:57:31;102435.88;;;24.36;34.93
72157;BME280;60035;52.122;5.406;2023-06-04T10:59:59;102433.50;;;24.46;33.94
72157;BME280;60035;52.122;5.406;2023-06-04T11:02:27;102435.28;;;24.60;34.30
72157;BME280;60035;52.122;5.406;2023-06-04T11:05:06;102428.34;;;24.59;34.13
72157;BME280;60035;52.122;5.406;2023-06-04T11:07:47;102435.75;;;24.67;34.84
72157;BME280;60035;52.122;5.406;2023-06-04T11:10:15;102432.22;;;24.81;34.60
72157;BME280;60035;52.122;5.406;2023-06-04T11:12:47;102435.31;;;25.00;34.81
72157;BME280;60035;52.122;5.406;2023-06-04T11:15:14;102426.31;;;25.04;33.37
72157;BME280;60035;52.122;5.406;2023-06-04T11:17:55;102428.72;;;24.94;33.63
72157;BME280;60035;52.122;5.406;2023-06-04T11:20:25;102425.31;;;25.20;33.84
72157;BME280;60035;52.122;5.406;2023-06-04T11:22:54;102418.63;;;25.41;33.46
72157;BME280;60035;52.122;5.406;2023-06-04T11:25:26;102411.34;;;25.32;33.21
72157;BME280;60035;52.122;5.406;2023-06-04T11:27:55;102420.66;;;25.38;32.74
72157;BME280;60035;52.122;5.406;2023-06-04T11:30:25;102412.22;;;25.33;33.20
72157;BME280;60035;52.122;5.406;2023-06-04T11:33:00;102413.56;;;25.25;34.07
72157;BME280;60035;52.122;5.406;2023-06-04T11:35:27;102406.97;;;25.33;32.82
72157;BME280;60035;52.122;5.406;2023-06-04T11:37:55;102403.22;;;25.63;33.27
72157;BME280;60035;52.122;5.406;2023-06-04T11:40:22;102406.13;;;25.84;32.33
72157;BME280;60035;52.122;5.406;2023-06-04T11:42:50;102406.25;;;25.82;32.91
72157;BME280;60035;52.122;5.406;2023-06-04T11:45:18;102403.94;;;25.77;31.87
72157;BME280;60035;52.122;5.406;2023-06-04T11:47:46;102405.72;;;25.90;32.12
72157;BME280;60035;52.122;5.406;2023-06-04T11:50:14;102404.22;;;26.11;31.74
72157;BME280;60035;52.122;5.406;2023-06-04T11:52:41;102399.69;;;26.01;31.33
72157;BME280;60035;52.122;5.406;2023-06-04T11:55:11;102398.78;;;25.89;31.31
72157;BME280;60035;52.122;5.406;2023-06-04T11:57:38;102391.50;;;26.18;31.84
72157;BME280;60035;52.122;5.406;2023-06-04T12:00:09;102388.53;;;26.23;31.48
72157;BME280;60035;52.122;5.406;2023-06-04T12:02:37;102384.22;;;26.22;31.32
72157;BME280;60035;52.122;5.406;2023-06-04T12:05:14;102389.09;;;26.15;30.49
72157;BME280;60035;52.122;5.406;2023-06-04T12:07:41;102379.56;;;26.38;30.70
72157;BME280;60035;52.122;5.406;2023-06-04T12:10:08;102383.00;;;26.63;30.49
72157;BME280;60035;52.122;5.406;2023-06-04T12:12:35;102384.47;;;26.67;30.81
72157;BME280;60035;52.122;5.406;2023-06-04T12:15:01;102388.72;;;26.57;31.12
72157;BME280;60035;52.122;5.406;2023-06-04T12:17:30;102386.53;;;26.75;29.75
72157;BME280;60035;52.122;5.406;2023-06-04T12:19:57;102383.25;;;26.96;30.41
72157;BME280;60035;52.122;5.406;2023-06-04T12:22:25;102383.22;;;26.84;30.23
72157;BME280;60035;52.122;5.406;2023-06-04T12:24:55;102389.47;;;26.94;30.12
72157;BME280;60035;52.122;5.406;2023-06-04T12:27:24;102389.28;;;27.09;29.86
72157;BME280;60035;52.122;5.406;2023-06-04T12:30:01;102381.75;;;27.16;29.91
72157;BME280;60035;52.122;5.406;2023-06-04T12:32:28;102385.69;;;27.10;28.35
72157;BME280;60035;52.122;5.406;2023-06-04T12:34:55;102384.09;;;26.96;28.68
72157;BME280;60035;52.122;5.406;2023-06-04T12:37:22;102385.31;;;27.15;28.71
72157;BME280;60035;52.122;5.406;2023-06-04T12:39:51;102374.38;;;27.32;29.19
72157;BME280;60035;52.122;5.406;2023-06-04T12:42:19;102373.53;;;27.32;28.88
72157;BME280;60035;52.122;5.406;2023-06-04T12:44:46;102387.81;;;27.05;28.44
72157;BME280;60035;52.122;5.406;2023-06-04T12:47:13;102379.69;;;26.97;28.73
72157;BME280;60035;52.122;5.406;2023-06-04T12:49:42;102386.31;;;27.14;29.86
72157;BME280;60035;52.122;5.406;2023-06-04T12:52:09;102379.91;;;27.40;29.03
72157;BME280;60035;52.122;5.406;2023-06-04T12:54:35;102378.72;;;27.67;29.27
72157;BME280;60035;52.122;5.406;2023-06-04T12:57:02;102374.88;;;27.83;28.58
72157;BME280;60035;52.122;5.406;2023-06-04T12:59:28;102365.06;;;27.73;29.15
72157;BME280;60035;52.122;5.406;2023-06-04T13:01:55;102374.41;;;27.66;28.45